Weather at Yukari Bostanci Border Post Heliport

Public forecast

Using degrees Celsius for public forecast. Weather courtesy of forecast.io.

Closest aviation weather report (METAR) to Yukari Bostanci Border Post Heliport

Closest report is Nicosia (Lefkoşa) Ercan International Airport, 24.0 nm (44.4 km) E.

2024/04/22 11:50 (retrieved 19 minutes ago)

LCEN 221150Z 16011KT 9999 FEW020 27/10 Q1018 NOSIG

Closest aviation forecast (TAF) to Yukari Bostanci Border Post Heliport

Closest forecast is Nicosia (Lefkoşa) Ercan International Airport, 24.0 nm (44.4 km) E.

2024/04/22 06:15 (retrieved 6 hours ago)

TAF LCEN 220440Z 2206/2306 28015KT 9999 FEW025 TEMPO 2210/2214 CAVOK BECMG 2212/2216 35015KT